• Join FlightAware (Why Join?)
  • Login
  • US Flag 
11:10AM EDT


 

Airport Tracker/Info


-or-


 

Live Flight TrackerFlight Track Log ✈ RPA3446 ✈ 02-Jul-2014 ✈ KPHL - KBGR

Flight Track Log - Related Links

Times and Time Zones

All times are in EDT time to prevent confusion due to time zone crossing. See the RPA3446 flight status page for this flight to view local times or setup timezone preferences in your user account.

Time Position Orientation Groundspeed Altitude Reporting Facility
EDT Latitude Longitude Course Direction KTS MPH feet Rate Location/Type
10:57PM 39.8667 -75.2833 38° Northeast 166 191 600  Level Philadelphia TRACON
10:59PM 39.8500 -75.3667 255° West 221 254 3,700 2,520 Climbing Philadelphia TRACON
11:00PM 39.8333 -75.4500 255° West 266 306 6,700 2,880 Climbing Philadelphia TRACON
11:01PM 39.7914 -74.7403 105° East  Level FlightAware Approximate
11:01PM 39.8667 -75.5167 303° West 297 342 9,600  Level Philadelphia TRACON
11:02PM 39.8362 -74.6472 37° Northeast  Level FlightAware Approximate
11:02PM 39.9500 -75.5333 351° North 324 373 11,500  Level Philadelphia TRACON
11:03PM 39.9144 -74.5689 38° Northeast  Level FlightAware Approximate
11:03PM 40.0333 -75.5333 360° North 348 400 13,000  Level Philadelphia TRACON
11:04PM 40.1314 -75.5517 352° North 363 418 13,000 540 Level New York Center
11:05PM 40.2203 -75.5689 352° North 363 418 14,100 1,860 Climbing New York Center
11:06PM 40.2911 -75.6664 314° West 331 381 16,800 1,380 Climbing New York Center
11:07PM 40.3561 -75.7608 312° West 337 388 17,000 60 Climbing New York Center
11:08PM 40.4186 -75.8553 311° West 349 402 17,000  Level New York Center
11:09PM 40.4517 -75.9614 292° West 349 402 17,000 420 Level New York Center
11:10PM 40.4714 -76.0803 282° West 343 395 17,900 1,500 Climbing New York Center
11:11PM 40.4908 -76.2044 282° West 343 395 20,000 2,040 Climbing New York Center
11:12PM 40.5117 -76.3344 282° West 348 400 22,000 1,800 Climbing New York Center
11:13PM 40.5306 -76.4672 281° West 366 421 23,700 960 Climbing New York Center
11:14PM 40.5853 -76.5808 302° West 366 421 24,000 240 Climbing New York Center
11:15PM 40.6933 -76.6311 341° North 361 415 24,200 480 Climbing New York Center
11:16PM 40.8047 -76.6544 351° North 376 433 25,000 360 Climbing New York Center
11:17PM 40.9219 -76.6836 349° North 400 460 25,000  Level New York Center
11:18PM 41.0478 -76.7139 350° North 414 476 25,000  Level New York Center
11:19PM 41.1672 -76.7383 351° North 420 483 25,000  Level New York Center
11:20PM 41.2831 -76.7567 353° North 425 489 25,000  Level New York Center
11:21PM 41.3914 -76.6750 29° Northeast 408 470 25,000  Level New York Center
11:22PM 41.4625 -76.5403 55° Northeast 403 464 25,000  Level New York Center
11:23PM 41.5317 -76.3992 57° Northeast 420 483 25,000  Level New York Center
11:24PM 41.6028 -76.2581 56° Northeast 438 504 25,000  Level New York Center
11:25PM 41.6697 -76.1192 57° Northeast 443 510 25,000 540 Level New York Center
11:26PM 41.7383 -75.9775 57° Northeast 443 510 26,100 1,260 Climbing New York Center
11:27PM 41.8667 -75.7189 56° Northeast 458 527 28,600 1,320 Climbing Boston Center
11:28PM 41.9386 -75.5733 56° Northeast 466 536 30,000 1,260 Climbing Boston Center
11:29PM 42.0103 -75.4264 57° Northeast 468 539 31,300 1,260 Climbing Boston Center
11:30PM 42.0811 -75.2806 57° Northeast 468 539 32,600 840 Climbing Boston Center
11:31PM 42.1450 -75.1450 58° Northeast 468 539 33,000 180 Climbing Boston Center
11:33PM 42.2139 -74.9969 58° Northeast 468 539 33,000 240 Level Boston Center
11:33PM 42.2831 -74.8500 57° Northeast 467 537 33,500 840 Climbing Boston Center
11:34PM 42.3500 -74.7017 59° Northeast 465 535 34,700 720 Climbing Boston Center
11:36PM 42.4183 -74.5547 58° Northeast 460 529 35,000 120 Climbing Boston Center
11:37PM 42.4986 -74.3786 58° Northeast 461 531 35,000  Level Boston Center
11:38PM 42.5661 -74.2306 58° Northeast 459 528 35,000  Level Boston Center
11:39PM 42.6319 -74.0836 59° Northeast 458 527 35,000  Level Boston Center
11:40PM 42.7000 -73.9356 58° Northeast 459 528 35,000  Level Boston Center
11:41PM 42.7678 -73.7858 58° Northeast 460 529 35,000  Level Boston Center
11:42PM 42.8339 -73.6342 59° Northeast 461 531 35,000  Level Boston Center
11:43PM 42.9022 -73.4842 58° Northeast 462 532 35,000  Level Boston Center
11:44PM 42.9689 -73.3328 59° Northeast 462 532 35,000  Level Boston Center
11:45PM 43.0350 -73.1794 59° Northeast 463 533 35,000 -300 Level Boston Center
11:46PM 43.1011 -73.0281 59° Northeast 463 533 34,500 -900 Descending Boston Center
11:47PM 43.1686 -72.8758 59° Northeast 463 533 33,200 -780 Descending Boston Center
11:48PM 43.2344 -72.7211 60° Northeast 464 534 33,000 -120 Descending Boston Center
11:49PM 43.3011 -72.5664 59° Northeast 468 539 33,000  Level Boston Center
11:50PM 43.3672 -72.4122 59° Northeast 468 539 33,000  Level Boston Center
11:51PM 43.4339 -72.2564 59° Northeast 469 540 33,000  Level Boston Center
11:52PM 43.4992 -72.1014 60° Northeast 469 540 33,000  Level Boston Center
11:53PM 43.5653 -71.9458 60° Northeast 470 541 33,000  Level Boston Center
11:54PM 43.6300 -71.7911 60° Northeast 469 540 33,000 -300 Level Boston Center
11:55PM 43.6933 -71.6386 60° Northeast 462 532 32,500 -1,140 Descending Boston Center
11:56PM 43.7644 -71.4681 60° Northeast 463 533 30,800 -1,740 Descending Boston Center
11:57PM 43.8289 -71.3106 60° Northeast 466 536 29,100 -1,680 Descending Boston Center
11:58PM 43.8925 -71.1531 61° Northeast 466 536 27,400 -1,680 Descending Boston Center
11:59PM 43.9561 -71.0014 60° Northeast 459 528 25,800 -1,620 Descending Boston Center
12:00AM 44.0167 -70.8514 61° Northeast 448 516 24,200 -1,560 Descending Boston Center
12:01AM 44.0761 -70.7061 60° Northeast 435 501 22,700 -1,500 Descending Boston Center
12:02AM 44.1333 -70.5628 61° Northeast 428 493 21,200 -1,500 Descending Boston Center
12:03AM 44.1894 -70.4222 61° Northeast 418 481 19,700 -1,560 Descending Boston Center
12:04AM 44.2522 -70.2647 61° Northeast 404 465 18,100 -1,500 Descending Boston Center
12:05AM 44.3044 -70.1319 61° Northeast 392 451 16,700 -1,440 Descending Boston Center
12:06AM 44.3556 -70.0011 61° Northeast 386 444 15,200 -1,560 Descending Boston Center
12:07AM 44.4047 -69.8747 61° Northeast 374 430 13,600 -1,500 Descending Boston Center
12:08AM 44.4481 -69.7678 60° Northeast 372 428 12,200 -1,260 Descending Boston Center
12:09AM 44.4953 -69.6467 61° Northeast 360 414 11,100 -600 Descending Boston Center
12:10AM 44.5408 -69.5258 62° Northeast 353 406 11,100 -600 Level Boston Center
12:11AM 44.6003 -69.3956 57° Northeast 331 381 10,000 -1,560 Descending Boston Center
12:12AM 44.6606 -69.3019 48° Northeast 327 376 8,000 -2,040 Descending Boston Center
12:13AM 44.7181 -69.2089 49° Northeast 321 369 6,000 -2,040 Descending Boston Center
12:14AM 44.7747 -69.1183 49° Northeast 316 364 3,900 -1,500 Descending Boston Center
12:15AM 44.8278 -69.0325 49° Northeast 298 343 3,000 -660 Descending Boston Center
12:16AM 44.8647 -68.9528 57° Northeast 257 296 2,700 -840 Descending Boston Center
12:17AM 44.8483 -68.8856 109° East 200 230 1,400 -1,140 Descending Boston Center
12:18AM 44.8208 -68.8478 136° Southeast 162 186 400 -600 Descending Boston Center
12:19AM 44.7944 -68.8131 137° Southeast 156 180 200 -240 Descending Boston Center